sensor_id;sensor_type;location;lat;lon;timestamp;P1;durP1;ratioP1;P2;durP2;ratioP2
31384;SDS011;18016;49.788;8.742;2023-02-13T00:00:21;20.85;;;12.02;;
31384;SDS011;18016;49.788;8.742;2023-02-13T00:02:46;23.05;;;12.55;;
31384;SDS011;18016;49.788;8.742;2023-02-13T00:05:11;19.52;;;11.77;;
31384;SDS011;18016;49.788;8.742;2023-02-13T00:07:36;20.57;;;11.70;;
31384;SDS011;18016;49.788;8.742;2023-02-13T00:10:02;18.20;;;10.70;;
31384;SDS011;18016;49.788;8.742;2023-02-13T00:12:27;20.45;;;11.13;;
31384;SDS011;18016;49.788;8.742;2023-02-13T00:14:52;20.57;;;11.40;;
31384;SDS011;18016;49.788;8.742;2023-02-13T00:17:18;19.13;;;11.70;;
31384;SDS011;18016;49.788;8.742;2023-02-13T00:19:43;22.67;;;12.10;;
31384;SDS011;18016;49.788;8.742;2023-02-13T00:22:08;18.33;;;10.70;;
31384;SDS011;18016;49.788;8.742;2023-02-13T00:24:33;22.17;;;13.05;;
31384;SDS011;18016;49.788;8.742;2023-02-13T00:26:59;17.33;;;10.35;;
31384;SDS011;18016;49.788;8.742;2023-02-13T00:29:24;19.73;;;10.60;;
31384;SDS011;18016;49.788;8.742;2023-02-13T00:31:49;18.03;;;10.93;;
31384;SDS011;18016;49.788;8.742;2023-02-13T00:34:14;16.03;;;9.97;;
31384;SDS011;18016;49.788;8.742;2023-02-13T00:36:39;18.63;;;10.47;;
31384;SDS011;18016;49.788;8.742;2023-02-13T00:39:04;18.53;;;10.30;;
31384;SDS011;18016;49.788;8.742;2023-02-13T00:41:30;18.93;;;10.47;;
31384;SDS011;18016;49.788;8.742;2023-02-13T00:43:55;22.90;;;11.77;;
31384;SDS011;18016;49.788;8.742;2023-02-13T00:46:20;20.67;;;10.93;;
31384;SDS011;18016;49.788;8.742;2023-02-13T00:48:45;20.15;;;11.70;;
31384;SDS011;18016;49.788;8.742;2023-02-13T00:51:10;22.00;;;11.00;;
31384;SDS011;18016;49.788;8.742;2023-02-13T00:53:36;20.45;;;10.77;;
31384;SDS011;18016;49.788;8.742;2023-02-13T00:56:01;23.98;;;11.65;;
31384;SDS011;18016;49.788;8.742;2023-02-13T00:58:26;19.10;;;10.93;;
31384;SDS011;18016;49.788;8.742;2023-02-13T01:00:52;22.23;;;12.33;;
31384;SDS011;18016;49.788;8.742;2023-02-13T01:03:17;20.13;;;10.90;;
31384;SDS011;18016;49.788;8.742;2023-02-13T01:05:43;18.42;;;10.75;;
31384;SDS011;18016;49.788;8.742;2023-02-13T01:08:09;17.75;;;10.15;;
31384;SDS011;18016;49.788;8.742;2023-02-13T01:10:36;19.25;;;10.85;;
31384;SDS011;18016;49.788;8.742;2023-02-13T01:13:01;20.55;;;10.75;;
31384;SDS011;18016;49.788;8.742;2023-02-13T01:15:26;20.60;;;10.87;;
31384;SDS011;18016;49.788;8.742;2023-02-13T01:17:52;19.92;;;11.07;;
31384;SDS011;18016;49.788;8.742;2023-02-13T01:20:18;18.25;;;11.20;;
31384;SDS011;18016;49.788;8.742;2023-02-13T01:22:43;18.90;;;10.30;;
31384;SDS011;18016;49.788;8.742;2023-02-13T01:25:09;20.98;;;10.45;;
31384;SDS011;18016;49.788;8.742;2023-02-13T01:27:34;18.60;;;10.48;;
31384;SDS011;18016;49.788;8.742;2023-02-13T01:30:00;22.43;;;11.37;;
31384;SDS011;18016;49.788;8.742;2023-02-13T01:32:25;23.30;;;10.63;;
31384;SDS011;18016;49.788;8.742;2023-02-13T01:34:50;21.15;;;10.82;;
31384;SDS011;18016;49.788;8.742;2023-02-13T01:37:15;20.80;;;10.90;;
31384;SDS011;18016;49.788;8.742;2023-02-13T01:39:40;18.80;;;10.33;;
31384;SDS011;18016;49.788;8.742;2023-02-13T01:42:12;19.63;;;10.48;;
31384;SDS011;18016;49.788;8.742;2023-02-13T01:44:46;18.90;;;11.05;;
31384;SDS011;18016;49.788;8.742;2023-02-13T01:47:13;20.02;;;10.68;;
31384;SDS011;18016;49.788;8.742;2023-02-13T01:49:39;19.38;;;11.23;;
31384;SDS011;18016;49.788;8.742;2023-02-13T01:52:05;21.30;;;10.98;;
31384;SDS011;18016;49.788;8.742;2023-02-13T01:54:31;20.77;;;10.85;;
31384;SDS011;18016;49.788;8.742;2023-02-13T01:56:58;19.83;;;10.70;;
31384;SDS011;18016;49.788;8.742;2023-02-13T01:59:26;21.08;;;10.73;;
31384;SDS011;18016;49.788;8.742;2023-02-13T02:01:52;20.20;;;11.45;;
31384;SDS011;18016;49.788;8.742;2023-02-13T02:06:44;19.65;;;10.48;;
31384;SDS011;18016;49.788;8.742;2023-02-13T02:09:11;23.40;;;11.30;;
31384;SDS011;18016;49.788;8.742;2023-02-13T02:14:26;22.80;;;11.82;;
31384;SDS011;18016;49.788;8.742;2023-02-13T02:16:52;18.77;;;10.02;;
31384;SDS011;18016;49.788;8.742;2023-02-13T02:24:40;20.63;;;10.93;;
31384;SDS011;18016;49.788;8.742;2023-02-13T02:32:05;20.47;;;10.80;;
31384;SDS011;18016;49.788;8.742;2023-02-13T02:34:52;18.27;;;10.60;;
31384;SDS011;18016;49.788;8.742;2023-02-13T02:39:54;20.90;;;11.25;;
31384;SDS011;18016;49.788;8.742;2023-02-13T02:42:29;24.15;;;12.55;;
31384;SDS011;18016;49.788;8.742;2023-02-13T02:45:07;25.05;;;11.93;;
31384;SDS011;18016;49.788;8.742;2023-02-13T02:47:40;22.88;;;11.27;;
31384;SDS011;18016;49.788;8.742;2023-02-13T02:50:36;26.08;;;12.63;;
31384;SDS011;18016;49.788;8.742;2023-02-13T02:55:35;31.33;;;14.75;;
31384;SDS011;18016;49.788;8.742;2023-02-13T02:58:09;31.33;;;14.52;;
31384;SDS011;18016;49.788;8.742;2023-02-13T03:00:54;24.08;;;11.93;;
31384;SDS011;18016;49.788;8.742;2023-02-13T03:07:24;21.83;;;11.02;;
31384;SDS011;18016;49.788;8.742;2023-02-13T03:09:23;23.15;;;11.75;;
31384;SDS011;18016;49.788;8.742;2023-02-13T03:12:08;27.73;;;13.50;;
31384;SDS011;18016;49.788;8.742;2023-02-13T03:14:52;24.20;;;11.35;;
31384;SDS011;18016;49.788;8.742;2023-02-13T03:17:17;23.67;;;12.35;;
31384;SDS011;18016;49.788;8.742;2023-02-13T03:28:21;28.92;;;12.93;;
31384;SDS011;18016;49.788;8.742;2023-02-13T03:31:16;53.78;;;21.38;;
31384;SDS011;18016;49.788;8.742;2023-02-13T03:42:06;38.58;;;16.13;;
31384;SDS011;18016;49.788;8.742;2023-02-13T03:47:04;35.15;;;16.27;;
31384;SDS011;18016;49.788;8.742;2023-02-13T03:49:35;36.65;;;16.58;;
31384;SDS011;18016;49.788;8.742;2023-02-13T03:52:22;35.72;;;15.23;;
31384;SDS011;18016;49.788;8.742;2023-02-13T03:54:50;112.10;;;19.98;;
31384;SDS011;18016;49.788;8.742;2023-02-13T03:57:35;71.05;;;22.08;;
31384;SDS011;18016;49.788;8.742;2023-02-13T04:00:20;67.97;;;23.20;;
31384;SDS011;18016;49.788;8.742;2023-02-13T04:03:21;49.05;;;19.02;;
31384;SDS011;18016;49.788;8.742;2023-02-13T04:05:38;42.75;;;18.33;;
31384;SDS011;18016;49.788;8.742;2023-02-13T04:08:05;58.42;;;17.75;;
31384;SDS011;18016;49.788;8.742;2023-02-13T04:10:30;104.40;;;20.87;;
31384;SDS011;18016;49.788;8.742;2023-02-13T04:15:42;61.00;;;22.75;;
31384;SDS011;18016;49.788;8.742;2023-02-13T04:18:10;117.60;;;34.08;;
31384;SDS011;18016;49.788;8.742;2023-02-13T04:20:37;113.53;;;24.98;;
31384;SDS011;18016;49.788;8.742;2023-02-13T04:23:07;71.10;;;23.55;;
31384;SDS011;18016;49.788;8.742;2023-02-13T04:25:32;69.60;;;23.63;;
31384;SDS011;18016;49.788;8.742;2023-02-13T04:27:58;80.47;;;23.20;;
31384;SDS011;18016;49.788;8.742;2023-02-13T04:30:23;158.10;;;23.70;;
31384;SDS011;18016;49.788;8.742;2023-02-13T04:32:48;282.23;;;28.47;;
31384;SDS011;18016;49.788;8.742;2023-02-13T04:35:14;448.67;;;33.63;;
31384;SDS011;18016;49.788;8.742;2023-02-13T04:37:39;591.25;;;36.63;;
31384;SDS011;18016;49.788;8.742;2023-02-13T04:40:04;405.08;;;33.22;;
31384;SDS011;18016;49.788;8.742;2023-02-13T04:42:30;257.90;;;30.38;;
31384;SDS011;18016;49.788;8.742;2023-02-13T04:44:55;259.23;;;33.20;;
31384;SDS011;18016;49.788;8.742;2023-02-13T04:47:20;337.35;;;40.03;;
31384;SDS011;18016;49.788;8.742;2023-02-13T04:49:45;296.27;;;35.47;;
31384;SDS011;18016;49.788;8.742;2023-02-13T04:52:10;352.73;;;35.33;;
31384;SDS011;18016;49.788;8.742;2023-02-13T04:54:35;181.03;;;27.77;;
31384;SDS011;18016;49.788;8.742;2023-02-13T04:57:01;186.07;;;28.73;;
31384;SDS011;18016;49.788;8.742;2023-02-13T04:59:26;201.40;;;27.90;;
31384;SDS011;18016;49.788;8.742;2023-02-13T05:01:51;165.23;;;29.13;;
31384;SDS011;18016;49.788;8.742;2023-02-13T05:04:17;67.78;;;22.88;;
31384;SDS011;18016;49.788;8.742;2023-02-13T05:06:42;64.93;;;22.13;;
31384;SDS011;18016;49.788;8.742;2023-02-13T05:09:08;149.48;;;24.80;;
31384;SDS011;18016;49.788;8.742;2023-02-13T05:11:33;139.15;;;25.13;;
31384;SDS011;18016;49.788;8.742;2023-02-13T05:13:58;318.70;;;29.93;;
31384;SDS011;18016;49.788;8.742;2023-02-13T05:16:24;195.33;;;30.60;;
31384;SDS011;18016;49.788;8.742;2023-02-13T05:18:49;156.97;;;34.77;;
31384;SDS011;18016;49.788;8.742;2023-02-13T05:21:18;169.70;;;34.60;;
31384;SDS011;18016;49.788;8.742;2023-02-13T05:24:02;161.43;;;33.45;;
31384;SDS011;18016;49.788;8.742;2023-02-13T05:26:27;155.32;;;29.45;;
31384;SDS011;18016;49.788;8.742;2023-02-13T05:28:52;120.67;;;30.17;;
31384;SDS011;18016;49.788;8.742;2023-02-13T05:31:36;211.02;;;94.15;;
31384;SDS011;18016;49.788;8.742;2023-02-13T05:34:01;91.73;;;39.53;;
31384;SDS011;18016;49.788;8.742;2023-02-13T05:36:26;93.53;;;26.02;;
31384;SDS011;18016;49.788;8.742;2023-02-13T05:38:52;84.03;;;27.17;;
31384;SDS011;18016;49.788;8.742;2023-02-13T05:41:17;64.35;;;25.55;;
31384;SDS011;18016;49.788;8.742;2023-02-13T05:43:42;59.77;;;24.27;;
31384;SDS011;18016;49.788;8.742;2023-02-13T05:46:08;59.00;;;24.77;;
31384;SDS011;18016;49.788;8.742;2023-02-13T05:48:33;63.35;;;24.75;;
31384;SDS011;18016;49.788;8.742;2023-02-13T05:50:59;65.07;;;23.02;;
31384;SDS011;18016;49.788;8.742;2023-02-13T05:53:24;144.32;;;24.67;;
31384;SDS011;18016;49.788;8.742;2023-02-13T05:55:49;68.13;;;23.10;;
31384;SDS011;18016;49.788;8.742;2023-02-13T05:58:16;118.85;;;25.50;;
31384;SDS011;18016;49.788;8.742;2023-02-13T06:00:41;52.28;;;21.88;;
31384;SDS011;18016;49.788;8.742;2023-02-13T06:03:06;48.70;;;20.73;;
31384;SDS011;18016;49.788;8.742;2023-02-13T06:05:32;56.30;;;21.10;;
31384;SDS011;18016;49.788;8.742;2023-02-13T06:07:57;57.83;;;21.67;;
31384;SDS011;18016;49.788;8.742;2023-02-13T06:10:22;134.23;;;27.97;;
31384;SDS011;18016;49.788;8.742;2023-02-13T06:12:47;115.30;;;31.30;;
31384;SDS011;18016;49.788;8.742;2023-02-13T06:15:12;84.17;;;23.20;;
31384;SDS011;18016;49.788;8.742;2023-02-13T06:17:37;102.03;;;30.57;;
31384;SDS011;18016;49.788;8.742;2023-02-13T06:20:03;110.93;;;25.43;;
31384;SDS011;18016;49.788;8.742;2023-02-13T06:22:28;138.30;;;26.95;;
31384;SDS011;18016;49.788;8.742;2023-02-13T06:24:53;117.80;;;27.57;;
31384;SDS011;18016;49.788;8.742;2023-02-13T06:27:18;154.25;;;29.52;;
31384;SDS011;18016;49.788;8.742;2023-02-13T06:29:43;165.40;;;33.37;;
31384;SDS011;18016;49.788;8.742;2023-02-13T06:32:09;222.38;;;29.77;;
31384;SDS011;18016;49.788;8.742;2023-02-13T06:34:34;220.93;;;30.43;;
31384;SDS011;18016;49.788;8.742;2023-02-13T06:36:59;155.77;;;31.50;;
31384;SDS011;18016;49.788;8.742;2023-02-13T06:39:24;179.63;;;32.78;;
31384;SDS011;18016;49.788;8.742;2023-02-13T06:41:49;216.60;;;33.07;;
31384;SDS011;18016;49.788;8.742;2023-02-13T06:44:14;300.00;;;35.07;;
31384;SDS011;18016;49.788;8.742;2023-02-13T06:46:40;325.03;;;34.00;;
31384;SDS011;18016;49.788;8.742;2023-02-13T06:49:05;385.77;;;38.67;;
31384;SDS011;18016;49.788;8.742;2023-02-13T06:51:30;578.05;;;54.60;;
31384;SDS011;18016;49.788;8.742;2023-02-13T06:53:55;708.17;;;53.20;;
31384;SDS011;18016;49.788;8.742;2023-02-13T06:56:20;361.13;;;101.10;;
31384;SDS011;18016;49.788;8.742;2023-02-13T06:58:46;489.65;;;81.70;;
31384;SDS011;18016;49.788;8.742;2023-02-13T07:01:11;566.13;;;50.10;;
31384;SDS011;18016;49.788;8.742;2023-02-13T07:03:36;416.10;;;42.65;;
31384;SDS011;18016;49.788;8.742;2023-02-13T07:06:01;405.50;;;44.33;;
31384;SDS011;18016;49.788;8.742;2023-02-13T07:08:26;456.43;;;46.83;;
31384;SDS011;18016;49.788;8.742;2023-02-13T07:10:51;242.68;;;37.35;;
31384;SDS011;18016;49.788;8.742;2023-02-13T07:13:17;343.13;;;41.43;;
31384;SDS011;18016;49.788;8.742;2023-02-13T07:15:42;330.07;;;33.43;;
31384;SDS011;18016;49.788;8.742;2023-02-13T07:18:07;359.88;;;37.15;;
31384;SDS011;18016;49.788;8.742;2023-02-13T07:20:33;297.20;;;31.38;;
31384;SDS011;18016;49.788;8.742;2023-02-13T07:22:58;433.42;;;38.17;;
31384;SDS011;18016;49.788;8.742;2023-02-13T07:25:24;274.67;;;34.80;;
31384;SDS011;18016;49.788;8.742;2023-02-13T07:27:49;214.50;;;32.97;;
31384;SDS011;18016;49.788;8.742;2023-02-13T07:30:14;208.73;;;30.67;;
31384;SDS011;18016;49.788;8.742;2023-02-13T07:32:39;256.38;;;29.17;;
31384;SDS011;18016;49.788;8.742;2023-02-13T07:35:04;240.03;;;28.10;;
31384;SDS011;18016;49.788;8.742;2023-02-13T07:37:30;409.75;;;35.92;;
31384;SDS011;18016;49.788;8.742;2023-02-13T07:39:55;484.55;;;44.60;;
31384;SDS011;18016;49.788;8.742;2023-02-13T07:42:21;428.17;;;40.30;;
31384;SDS011;18016;49.788;8.742;2023-02-13T07:44:46;493.55;;;41.38;;
31384;SDS011;18016;49.788;8.742;2023-02-13T07:47:11;278.80;;;35.67;;
31384;SDS011;18016;49.788;8.742;2023-02-13T07:49:36;465.47;;;40.33;;
31384;SDS011;18016;49.788;8.742;2023-02-13T07:52:02;401.23;;;37.13;;
31384;SDS011;18016;49.788;8.742;2023-02-13T07:54:27;275.33;;;37.13;;
31384;SDS011;18016;49.788;8.742;2023-02-13T07:56:53;373.73;;;38.87;;
31384;SDS011;18016;49.788;8.742;2023-02-13T07:59:18;296.90;;;37.90;;
31384;SDS011;18016;49.788;8.742;2023-02-13T08:01:43;281.77;;;37.80;;
31384;SDS011;18016;49.788;8.742;2023-02-13T08:04:08;179.10;;;35.00;;
31384;SDS011;18016;49.788;8.742;2023-02-13T08:06:33;223.47;;;33.70;;
31384;SDS011;18016;49.788;8.742;2023-02-13T08:08:58;150.47;;;32.73;;
31384;SDS011;18016;49.788;8.742;2023-02-13T08:11:42;187.65;;;32.15;;
31384;SDS011;18016;49.788;8.742;2023-02-13T08:14:24;147.85;;;30.60;;
31384;SDS011;18016;49.788;8.742;2023-02-13T08:16:50;117.97;;;26.88;;
31384;SDS011;18016;49.788;8.742;2023-02-13T08:19:15;97.50;;;24.92;;
31384;SDS011;18016;49.788;8.742;2023-02-13T08:21:40;100.00;;;23.33;;
31384;SDS011;18016;49.788;8.742;2023-02-13T08:24:05;138.45;;;22.27;;
31384;SDS011;18016;49.788;8.742;2023-02-13T08:26:31;73.72;;;21.83;;
31384;SDS011;18016;49.788;8.742;2023-02-13T08:28:56;103.13;;;21.42;;
31384;SDS011;18016;49.788;8.742;2023-02-13T08:31:21;109.05;;;25.65;;
31384;SDS011;18016;49.788;8.742;2023-02-13T08:33:47;106.28;;;26.52;;
31384;SDS011;18016;49.788;8.742;2023-02-13T08:36:12;57.67;;;22.87;;
31384;SDS011;18016;49.788;8.742;2023-02-13T08:38:37;75.00;;;21.13;;
31384;SDS011;18016;49.788;8.742;2023-02-13T08:41:02;56.90;;;21.27;;
31384;SDS011;18016;49.788;8.742;2023-02-13T08:43:27;121.90;;;20.07;;
31384;SDS011;18016;49.788;8.742;2023-02-13T08:45:53;44.73;;;21.03;;
31384;SDS011;18016;49.788;8.742;2023-02-13T08:48:18;43.87;;;20.60;;
31384;SDS011;18016;49.788;8.742;2023-02-13T08:50:43;42.77;;;20.33;;
31384;SDS011;18016;49.788;8.742;2023-02-13T08:53:08;39.17;;;18.38;;
31384;SDS011;18016;49.788;8.742;2023-02-13T08:55:33;54.58;;;19.95;;
31384;SDS011;18016;49.788;8.742;2023-02-13T08:57:59;32.65;;;18.30;;
31384;SDS011;18016;49.788;8.742;2023-02-13T09:00:25;38.17;;;19.08;;
31384;SDS011;18016;49.788;8.742;2023-02-13T09:02:50;34.60;;;18.30;;
31384;SDS011;18016;49.788;8.742;2023-02-13T09:05:15;30.25;;;17.15;;
31384;SDS011;18016;49.788;8.742;2023-02-13T09:07:40;27.00;;;15.85;;
31384;SDS011;18016;49.788;8.742;2023-02-13T09:10:06;29.03;;;15.13;;
31384;SDS011;18016;49.788;8.742;2023-02-13T09:12:31;26.58;;;15.57;;
31384;SDS011;18016;49.788;8.742;2023-02-13T09:14:56;23.50;;;14.48;;
31384;SDS011;18016;49.788;8.742;2023-02-13T09:17:22;25.42;;;15.73;;
31384;SDS011;18016;49.788;8.742;2023-02-13T09:19:47;26.07;;;15.80;;
31384;SDS011;18016;49.788;8.742;2023-02-13T09:22:12;23.80;;;14.63;;
31384;SDS011;18016;49.788;8.742;2023-02-13T09:24:37;29.07;;;18.30;;
31384;SDS011;18016;49.788;8.742;2023-02-13T09:27:05;27.27;;;17.10;;
31384;SDS011;18016;49.788;8.742;2023-02-13T09:29:32;26.17;;;16.92;;
31384;SDS011;18016;49.788;8.742;2023-02-13T09:31:57;27.65;;;15.75;;
31384;SDS011;18016;49.788;8.742;2023-02-13T09:34:23;23.58;;;14.05;;
31384;SDS011;18016;49.788;8.742;2023-02-13T09:36:51;22.00;;;14.07;;
31384;SDS011;18016;49.788;8.742;2023-02-13T09:39:17;18.83;;;11.75;;
31384;SDS011;18016;49.788;8.742;2023-02-13T09:41:42;18.43;;;12.47;;
31384;SDS011;18016;49.788;8.742;2023-02-13T09:46:38;17.75;;;11.50;;
31384;SDS011;18016;49.788;8.742;2023-02-13T09:49:07;20.10;;;12.30;;
31384;SDS011;18016;49.788;8.742;2023-02-13T09:51:35;16.13;;;11.05;;
31384;SDS011;18016;49.788;8.742;2023-02-13T09:54:01;21.87;;;11.83;;
31384;SDS011;18016;49.788;8.742;2023-02-13T09:57:11;30.67;;;16.40;;
31384;SDS011;18016;49.788;8.742;2023-02-13T10:01:46;30.05;;;16.65;;
31384;SDS011;18016;49.788;8.742;2023-02-13T10:06:39;16.20;;;11.23;;
31384;SDS011;18016;49.788;8.742;2023-02-13T10:10:15;18.00;;;11.60;;
31384;SDS011;18016;49.788;8.742;2023-02-13T10:14:51;22.17;;;12.82;;
31384;SDS011;18016;49.788;8.742;2023-02-13T10:20:33;20.73;;;13.40;;
31384;SDS011;18016;49.788;8.742;2023-02-13T10:25:51;20.90;;;12.88;;
31384;SDS011;18016;49.788;8.742;2023-02-13T10:28:27;16.45;;;11.13;;
31384;SDS011;18016;49.788;8.742;2023-02-13T10:30:55;18.50;;;11.25;;
31384;SDS011;18016;49.788;8.742;2023-02-13T10:33:23;17.15;;;11.65;;
31384;SDS011;18016;49.788;8.742;2023-02-13T10:36:00;18.05;;;11.65;;
31384;SDS011;18016;49.788;8.742;2023-02-13T10:38:27;14.30;;;10.00;;
31384;SDS011;18016;49.788;8.742;2023-02-13T10:43:38;14.68;;;9.95;;
31384;SDS011;18016;49.788;8.742;2023-02-13T10:46:30;14.07;;;9.82;;
31384;SDS011;18016;49.788;8.742;2023-02-13T10:49:16;12.75;;;9.68;;
31384;SDS011;18016;49.788;8.742;2023-02-13T10:51:54;13.48;;;9.40;;
31384;SDS011;18016;49.788;8.742;2023-02-13T10:54:29;15.02;;;10.43;;
31384;SDS011;18016;49.788;8.742;2023-02-13T10:57:03;18.92;;;10.38;;
31384;SDS011;18016;49.788;8.742;2023-02-13T10:59:39;13.18;;;9.30;;
31384;SDS011;18016;49.788;8.742;2023-02-13T11:02:19;19.65;;;9.00;;
31384;SDS011;18016;49.788;8.742;2023-02-13T11:04:45;16.73;;;9.38;;
31384;SDS011;18016;49.788;8.742;2023-02-13T11:07:12;10.93;;;7.90;;
31384;SDS011;18016;49.788;8.742;2023-02-13T11:09:39;10.63;;;7.40;;
31384;SDS011;18016;49.788;8.742;2023-02-13T11:12:24;14.32;;;8.07;;
31384;SDS011;18016;49.788;8.742;2023-02-13T11:14:54;15.10;;;8.35;;
31384;SDS011;18016;49.788;8.742;2023-02-13T11:17:20;14.07;;;8.13;;
31384;SDS011;18016;49.788;8.742;2023-02-13T11:19:56;12.93;;;8.45;;
31384;SDS011;18016;49.788;8.742;2023-02-13T11:22:35;13.10;;;8.55;;
31384;SDS011;18016;49.788;8.742;2023-02-13T11:25:17;11.15;;;8.43;;
31384;SDS011;18016;49.788;8.742;2023-02-13T11:27:44;11.52;;;7.57;;
31384;SDS011;18016;49.788;8.742;2023-02-13T11:32:41;10.98;;;7.07;;
31384;SDS011;18016;49.788;8.742;2023-02-13T11:35:27;11.30;;;7.55;;
31384;SDS011;18016;49.788;8.742;2023-02-13T11:40:33;9.68;;;7.18;;
31384;SDS011;18016;49.788;8.742;2023-02-13T11:42:58;9.60;;;6.87;;
31384;SDS011;18016;49.788;8.742;2023-02-13T11:45:24;11.73;;;7.03;;
31384;SDS011;18016;49.788;8.742;2023-02-13T11:47:49;10.00;;;7.22;;
31384;SDS011;18016;49.788;8.742;2023-02-13T11:50:29;10.15;;;7.25;;
31384;SDS011;18016;49.788;8.742;2023-02-13T11:53:05;9.70;;;6.47;;
31384;SDS011;18016;49.788;8.742;2023-02-13T11:55:35;11.27;;;6.95;;
31384;SDS011;18016;49.788;8.742;2023-02-13T12:00:39;10.70;;;6.63;;
31384;SDS011;18016;49.788;8.742;2023-02-13T12:03:23;10.15;;;7.13;;
31384;SDS011;18016;49.788;8.742;2023-02-13T12:08:23;11.98;;;7.10;;
31384;SDS011;18016;49.788;8.742;2023-02-13T12:10:49;8.73;;;7.10;;
31384;SDS011;18016;49.788;8.742;2023-02-13T12:13:15;9.73;;;7.07;;
31384;SDS011;18016;49.788;8.742;2023-02-13T12:15:44;11.98;;;7.40;;
31384;SDS011;18016;49.788;8.742;2023-02-13T12:20:39;9.70;;;7.40;;
31384;SDS011;18016;49.788;8.742;2023-02-13T12:23:27;14.38;;;8.48;;
31384;SDS011;18016;49.788;8.742;2023-02-13T12:28:52;17.90;;;6.80;;
31384;SDS011;18016;49.788;8.742;2023-02-13T12:31:32;9.45;;;6.88;;
31384;SDS011;18016;49.788;8.742;2023-02-13T12:37:26;19.17;;;14.10;;
31384;SDS011;18016;49.788;8.742;2023-02-13T12:39:32;11.60;;;8.00;;
31384;SDS011;18016;49.788;8.742;2023-02-13T12:49:23;9.77;;;6.50;;
31384;SDS011;18016;49.788;8.742;2023-02-13T12:57:26;10.63;;;6.57;;
31384;SDS011;18016;49.788;8.742;2023-02-13T13:07:53;6.55;;;5.35;;
31384;SDS011;18016;49.788;8.742;2023-02-13T13:12:53;7.60;;;5.45;;
31384;SDS011;18016;49.788;8.742;2023-02-13T13:23:31;7.25;;;5.65;;
31384;SDS011;18016;49.788;8.742;2023-02-13T13:26:03;7.30;;;5.68;;
31384;SDS011;18016;49.788;8.742;2023-02-13T13:28:31;7.53;;;5.35;;
31384;SDS011;18016;49.788;8.742;2023-02-13T13:30:58;6.75;;;5.68;;
31384;SDS011;18016;49.788;8.742;2023-02-13T13:33:24;8.38;;;5.65;;
31384;SDS011;18016;49.788;8.742;2023-02-13T13:41:04;7.18;;;5.35;;
31384;SDS011;18016;49.788;8.742;2023-02-13T13:43:57;7.55;;;5.18;;
31384;SDS011;18016;49.788;8.742;2023-02-13T13:46:33;5.88;;;4.90;;
31384;SDS011;18016;49.788;8.742;2023-02-13T13:49:12;8.18;;;5.20;;
31384;SDS011;18016;49.788;8.742;2023-02-13T13:51:40;7.47;;;5.50;;
31384;SDS011;18016;49.788;8.742;2023-02-13T13:59:15;7.18;;;4.70;;
31384;SDS011;18016;49.788;8.742;2023-02-13T14:01:41;6.18;;;4.80;;
31384;SDS011;18016;49.788;8.742;2023-02-13T14:11:52;6.82;;;5.35;;
31384;SDS011;18016;49.788;8.742;2023-02-13T14:16:52;7.13;;;5.05;;
31384;SDS011;18016;49.788;8.742;2023-02-13T14:19:34;6.22;;;5.15;;
31384;SDS011;18016;49.788;8.742;2023-02-13T14:24:49;6.85;;;5.20;;
31384;SDS011;18016;49.788;8.742;2023-02-13T14:27:21;9.23;;;4.97;;
31384;SDS011;18016;49.788;8.742;2023-02-13T14:29:47;5.88;;;4.78;;
31384;SDS011;18016;49.788;8.742;2023-02-13T14:32:16;7.90;;;5.45;;
31384;SDS011;18016;49.788;8.742;2023-02-13T14:34:45;7.97;;;5.32;;
31384;SDS011;18016;49.788;8.742;2023-02-13T14:37:16;6.68;;;5.10;;
31384;SDS011;18016;49.788;8.742;2023-02-13T14:40:31;6.43;;;5.28;;
31384;SDS011;18016;49.788;8.742;2023-02-13T14:42:30;9.50;;;5.45;;
31384;SDS011;18016;49.788;8.742;2023-02-13T14:44:57;6.55;;;5.32;;
31384;SDS011;18016;49.788;8.742;2023-02-13T14:47:30;6.95;;;5.32;;
31384;SDS011;18016;49.788;8.742;2023-02-13T14:49:56;6.25;;;4.90;;
31384;SDS011;18016;49.788;8.742;2023-02-13T14:52:23;6.80;;;5.07;;
31384;SDS011;18016;49.788;8.742;2023-02-13T14:54:53;6.25;;;5.22;;
31384;SDS011;18016;49.788;8.742;2023-02-13T14:57:24;7.85;;;5.80;;
31384;SDS011;18016;49.788;8.742;2023-02-13T14:59:58;7.30;;;5.03;;
31384;SDS011;18016;49.788;8.742;2023-02-13T15:02:25;6.57;;;5.35;;
31384;SDS011;18016;49.788;8.742;2023-02-13T15:04:59;5.82;;;5.22;;
31384;SDS011;18016;49.788;8.742;2023-02-13T15:07:26;14.70;;;5.40;;
31384;SDS011;18016;49.788;8.742;2023-02-13T15:10:04;7.25;;;5.57;;
31384;SDS011;18016;49.788;8.742;2023-02-13T15:12:31;9.00;;;5.85;;
31384;SDS011;18016;49.788;8.742;2023-02-13T15:14:57;7.13;;;5.55;;
31384;SDS011;18016;49.788;8.742;2023-02-13T15:17:32;9.63;;;5.10;;
31384;SDS011;18016;49.788;8.742;2023-02-13T15:20:06;8.80;;;5.68;;
31384;SDS011;18016;49.788;8.742;2023-02-13T15:22:40;11.00;;;5.90;;
31384;SDS011;18016;49.788;8.742;2023-02-13T15:25:19;8.02;;;5.72;;
31384;SDS011;18016;49.788;8.742;2023-02-13T15:27:45;7.53;;;5.78;;
31384;SDS011;18016;49.788;8.742;2023-02-13T15:30:22;7.80;;;5.55;;
31384;SDS011;18016;49.788;8.742;2023-02-13T15:32:52;7.47;;;4.82;;
31384;SDS011;18016;49.788;8.742;2023-02-13T15:35:22;10.20;;;5.65;;
31384;SDS011;18016;49.788;8.742;2023-02-13T15:37:48;6.60;;;5.25;;
31384;SDS011;18016;49.788;8.742;2023-02-13T15:40:24;9.03;;;6.43;;
31384;SDS011;18016;49.788;8.742;2023-02-13T15:42:49;9.60;;;5.97;;
31384;SDS011;18016;49.788;8.742;2023-02-13T15:45:15;8.98;;;6.00;;
31384;SDS011;18016;49.788;8.742;2023-02-13T15:47:42;7.30;;;5.32;;
31384;SDS011;18016;49.788;8.742;2023-02-13T15:50:28;9.18;;;5.45;;
31384;SDS011;18016;49.788;8.742;2023-02-13T15:52:54;7.63;;;5.82;;
31384;SDS011;18016;49.788;8.742;2023-02-13T15:55:24;10.87;;;7.13;;
31384;SDS011;18016;49.788;8.742;2023-02-13T15:57:50;14.32;;;8.55;;
31384;SDS011;18016;49.788;8.742;2023-02-13T16:00:20;9.13;;;6.18;;
31384;SDS011;18016;49.788;8.742;2023-02-13T16:02:47;30.42;;;17.42;;
31384;SDS011;18016;49.788;8.742;2023-02-13T16:05:13;17.65;;;7.80;;
31384;SDS011;18016;49.788;8.742;2023-02-13T16:07:46;17.60;;;9.18;;
31384;SDS011;18016;49.788;8.742;2023-02-13T16:10:15;16.88;;;7.88;;
31384;SDS011;18016;49.788;8.742;2023-02-13T16:12:45;20.02;;;7.70;;
31384;SDS011;18016;49.788;8.742;2023-02-13T16:15:12;14.30;;;7.20;;
31384;SDS011;18016;49.788;8.742;2023-02-13T16:17:40;15.57;;;7.25;;
31384;SDS011;18016;49.788;8.742;2023-02-13T16:22:41;10.10;;;6.22;;
31384;SDS011;18016;49.788;8.742;2023-02-13T16:27:35;9.23;;;6.40;;
31384;SDS011;18016;49.788;8.742;2023-02-13T16:30:03;10.95;;;6.10;;
31384;SDS011;18016;49.788;8.742;2023-02-13T16:32:30;9.35;;;6.30;;
31384;SDS011;18016;49.788;8.742;2023-02-13T16:34:56;11.32;;;6.65;;
31384;SDS011;18016;49.788;8.742;2023-02-13T16:37:29;9.60;;;6.75;;
31384;SDS011;18016;49.788;8.742;2023-02-13T16:39:54;10.82;;;6.40;;
31384;SDS011;18016;49.788;8.742;2023-02-13T16:42:20;8.47;;;6.60;;
31384;SDS011;18016;49.788;8.742;2023-02-13T16:44:45;10.27;;;6.60;;
31384;SDS011;18016;49.788;8.742;2023-02-13T16:47:16;9.63;;;6.50;;
31384;SDS011;18016;49.788;8.742;2023-02-13T16:49:44;12.55;;;6.75;;
31384;SDS011;18016;49.788;8.742;2023-02-13T16:59:47;10.73;;;6.60;;
31384;SDS011;18016;49.788;8.742;2023-02-13T17:07:15;8.43;;;6.47;;
31384;SDS011;18016;49.788;8.742;2023-02-13T17:09:40;14.50;;;7.53;;